Historique des mesures à Cassis (13260), France
Quotidien Résumé Juin 30, 2021 Unités:  Métrique/US    US   Métrique
Quotidien Hebdomadaire Mensuel Annuel
  Maximum: Minimum: Moyenne:
Température: 62.8 °F /  17.1 °C 59 °F /  15 °C 61.5 °F /  16.4 °C
Point de rosée: 60.3 °F /  15.7 °C 54.7 °F /  12.6 °C 56.8 °F /  13.8 °C
Humidité: 91% 76% 85%
Vitesse du vent: 9.8mph /  15.8km/h - 4.3mph /  6.9km/h
Rafales: 57mph /  91.8km/h - -
Vent- - ESE
Pression: 29.9 in /  1012.0 hPa 29.8 in /  1008.0 hPa -
Précipitations: 1.39 in /  35.3 mm    
Historical Graphs
 
 
Mesures pour : Juin 30, 2021
Heure Temperature Point de rosée Pression Vent Vitesse du vent Rafales Humidité Pluie (par heure)
00:11 62.4 °F /  16.9 °C 54.7 °F /  12.6 °C 29.9in /  1012.0hPa Calm   8.1mph /  13km/h 76% 0in /  0.0mm
01:11 62.4 °F /  16.9 °C 54.7 °F /  12.6 °C 29.9in /  1011.5hPa SE 3.8mph /  6.1km/h 7.6mph /  12.2km/h 76% 0in /  0.0mm
02:12 62.4 °F /  16.9 °C 54.7 °F /  12.6 °C 29.9in /  1011.4hPa Calm   3.4mph /  5.4km/h 76% 0in /  0.0mm
03:11 62.2 °F /  16.8 °C 54.9 °F /  12.7 °C 29.8in /  1010.6hPa ESE 2mph /  3.2km/h 3.6mph /  5.8km/h 77% 0in /  0.0mm
04:11 61.5 °F /  16.4 °C 55.6 °F /  13.1 °C 29.8in /  1009.6hPa ESE 4mph /  6.5km/h 9.8mph /  15.8km/h 81% 0in /  0.0mm
05:11 62.2 °F /  16.8 °C 56.3 °F /  13.5 °C 29.8in /  1008.9hPa ESE 2.7mph /  4.3km/h 10.3mph /  16.6km/h 81% 0in /  0.0mm
06:11 62.4 °F /  16.9 °C 56.8 °F /  13.8 °C 29.8in /  1008.6hPa ESE 3.4mph /  5.4km/h 11.2mph /  18km/h 82% 0in /  0.0mm
07:11 62.8 °F /  17.1 °C 57.2 °F /  14 °C 29.8in /  1008.2hPa ESE 4.9mph /  7.9km/h 10.5mph /  16.9km/h 82% 0in /  0.0mm
08:11 62.4 °F /  16.9 °C 58.1 °F /  14.5 °C 29.8in /  1008.0hPa ESE 6.5mph /  10.4km/h 14.8mph /  23.8km/h 86% 0.02in /  0.5mm
09:11 62.8 °F /  17.1 °C 58.8 °F /  14.9 °C 29.8in /  1008.0hPa ESE 5.3mph /  8.6km/h 14.5mph /  23.4km/h 87% 0.1in /  2.5mm
10:11 62.2 °F /  16.8 °C 58.6 °F /  14.8 °C 29.8in /  1008.8hPa SE 6.3mph /  10.1km/h 57mph /  91.8km/h 88% 0.18in /  4.6mm
11:11 62.2 °F /  16.8 °C 59 °F /  15 °C 29.8in /  1008.9hPa Calm   10.1mph /  16.2km/h 89% 0.02in /  0.5mm
12:11 62.4 °F /  16.9 °C 59.5 °F /  15.3 °C 29.8in /  1008.4hPa ESE 6.5mph /  10.4km/h 13.2mph /  21.2km/h 90% 0.06in /  1.5mm
13:11 62.8 °F /  17.1 °C 60.3 °F /  15.7 °C 29.8in /  1008.1hPa SE 2.2mph /  3.6km/h 11.4mph /  18.4km/h 91% 0.22in /  5.6mm
14:11 61.7 °F /  16.5 °C 58.8 °F /  14.9 °C 29.8in /  1008.1hPa Calm   2.9mph /  4.7km/h 90% 0.24in /  6.1mm
15:11 61 °F /  16.1 °C 57.7 °F /  14.3 °C 29.8in /  1008.0hPa SE 1.8mph /  2.9km/h 6.5mph /  10.4km/h 89% 0.12in /  3.0mm
16:11 60.3 °F /  15.7 °C 57.4 °F /  14.1 °C 29.8in /  1008.0hPa East 4.5mph /  7.2km/h 15.4mph /  24.8km/h 90% 0.16in /  4.1mm
17:11 59.2 °F /  15.1 °C 56.3 °F /  13.5 °C 29.8in /  1008.2hPa ESE 6.3mph /  10.1km/h 8.1mph /  13km/h 90% 0.16in /  4.1mm
18:11 59 °F /  15 °C 56.1 °F /  13.4 °C 29.8in /  1008.3hPa ENE 8.9mph /  14.4km/h 9.6mph /  15.5km/h 90% 0.08in /  2.0mm
19:11 59.4 °F /  15.2 °C 56.5 °F /  13.6 °C 29.8in /  1008.5hPa ESE 9.8mph /  15.8km/h 10.7mph /  17.3km/h 90% 0in /  0.0mm
20:11 59.7 °F /  15.4 °C 56.1 °F /  13.4 °C 29.8in /  1009.4hPa ENE 8.1mph /  13km/h 10.1mph /  16.2km/h 88% 0in /  0.0mm
21:11 60.1 °F /  15.6 °C 55.9 °F /  13.3 °C 29.8in /  1009.5hPa NE 5.6mph /  9km/h 10.3mph /  16.6km/h 86% 0in /  0.0mm
22:11 60.6 °F /  15.9 °C 55.8 °F /  13.2 °C 29.8in /  1009.9hPa ESE 5.8mph /  9.4km/h 12.7mph /  20.5km/h 84% 0in /  0.0mm
23:11 60.6 °F /  15.9 °C 55.4 °F /  13 °C 29.8in /  1009.9hPa SE 4.7mph /  7.6km/h 10.5mph /  16.9km/h 83% 0in /  0.0mm
Observations météo à CASSIS
WU-History script by Weather Underground - 2 mb